Waterford, California
Current Conditions -  °F | °C
As of 12:53 AM on Sunday 21 Dec 2014 (Local Time) from KMOD Reporting Station
Haze Haze  
Wind Chill: 55°   Ceiling: 3300
Heat Index: 55°   Visibility: 4mi
Dew Point: 53°   Wind: 0mph
Humidity: 93%   Direction: NA
Pressure: 30.24"   Gusts: NA
Location:  37.64°N, 120.76°W
Report Text: KMOD 210853Z AUTO 00000KT 4SM BR OVC033 13/12 A3024 RMK AO2 SLP241 T01280117 58007
Loading
Personal Weather Stations






























Interactive Weather Map New forecast layout! Learn more

10-Day Weather Forecast

Advertisements
Track Severe Weather on mobile